Time;durP1;ratioP1;P1;durP2;ratioP2;P2;SDS_P1;SDS_P2;PMS_P1;PMS_P2;Temp;Humidity;BMP_temperature;BMP_pressure;BME280_temperature;BME280_humidity;BME280_pressure;Samples;Min_cycle;Max_cycle;Signal;HPM_P1;HPM_P2
2021/01/27 00:00:24;;;;;;;13.83;9.60;;;3.60;1.00;;;;;;5118362;27;20473;-54
2021/01/27 00:02:50;;;;;;;14.50;9.53;;;3.40;1.00;;;;;;5123354;27;20223;-54
2021/01/27 00:05:23;;;;;;;13.03;9.43;;;3.30;1.00;;;;;;5119628;27;20436;-55
2021/01/27 00:07:49;;;;;;;13.70;9.40;;;3.40;1.00;;;;;;5122404;27;20180;-54
2021/01/27 00:10:16;;;;;;;13.93;9.67;;;3.30;1.00;;;;;;5118580;27;20807;-55
2021/01/27 00:12:42;;;;;;;14.87;10.47;;;3.40;1.00;;;;;;5120804;27;20193;-55
2021/01/27 00:15:10;;;;;;;14.57;9.00;;;3.40;1.00;;;;;;5122775;27;20438;-56
2021/01/27 00:17:36;;;;;;;14.03;9.97;;;3.40;1.00;;;;;;5120358;27;20451;-55
2021/01/27 00:20:03;;;;;;;15.53;9.83;;;3.40;1.00;;;;;;5124160;27;20459;-55
2021/01/27 00:22:28;;;;;;;12.27;9.70;;;3.30;1.00;;;;;;5123114;27;20543;-55
2021/01/27 00:24:54;;;;;;;12.73;8.67;;;3.40;1.00;;;;;;5120557;27;20446;-56
2021/01/27 00:27:19;;;;;;;11.90;7.20;;;3.50;1.00;;;;;;5121123;27;20562;-55
2021/01/27 00:29:45;;;;;;;14.67;9.87;;;3.40;1.00;;;;;;5122774;27;20182;-55
2021/01/27 00:32:11;;;;;;;13.07;9.30;;;3.30;1.00;;;;;;5125922;27;20226;-54
2021/01/27 00:34:36;;;;;;;14.10;10.23;;;3.40;1.00;;;;;;5114645;27;20187;-55
2021/01/27 00:37:02;;;;;;;14.60;10.40;;;3.40;1.00;;;;;;5120769;27;20585;-55
2021/01/27 00:39:27;;;;;;;12.70;8.40;;;3.30;1.00;;;;;;5127901;27;20209;-55
2021/01/27 00:41:53;;;;;;;14.40;9.30;;;3.30;1.00;;;;;;5115736;27;20193;-54
2021/01/27 00:44:19;;;;;;;14.37;9.33;;;3.20;1.00;;;;;;5123154;27;20179;-54
2021/01/27 00:46:44;;;;;;;15.83;10.03;;;3.10;1.00;;;;;;5123005;27;20207;-54
2021/01/27 00:49:10;;;;;;;13.00;8.37;;;3.00;1.00;;;;;;5121597;27;20196;-55
2021/01/27 00:51:35;;;;;;;13.43;9.23;;;3.00;1.00;;;;;;5118403;27;20195;-55
2021/01/27 00:54:01;;;;;;;13.70;9.00;;;2.90;1.00;;;;;;5119854;27;20583;-55
2021/01/27 00:56:27;;;;;;;12.17;8.60;;;2.80;1.00;;;;;;5112546;27;20187;-54
2021/01/27 00:58:52;;;;;;;11.17;9.07;;;2.90;1.00;;;;;;5113779;28;20218;-54
2021/01/27 01:01:18;;;;;;;13.10;9.20;;;2.90;1.00;;;;;;5118852;27;20643;-54
2021/01/27 01:03:43;;;;;;;11.63;8.50;;;3.00;1.00;;;;;;5119779;27;20190;-56
2021/01/27 01:06:09;;;;;;;13.23;8.97;;;3.10;1.00;;;;;;5124686;27;20211;-56
2021/01/27 01:08:35;;;;;;;12.77;8.53;;;3.00;1.00;;;;;;5116133;27;20269;-55
2021/01/27 01:11:01;;;;;;;11.10;8.50;;;2.90;1.00;;;;;;5119847;27;20198;-53
2021/01/27 01:13:29;;;;;;;16.13;10.17;;;2.80;1.00;;;;;;5123475;27;20628;-54
2021/01/27 01:15:55;;;;;;;14.40;9.13;;;2.80;1.00;;;;;;5101470;28;20639;-54
2021/01/27 01:18:21;;;;;;;13.93;9.80;;;2.80;1.00;;;;;;5123685;27;20433;-54
2021/01/27 01:20:47;;;;;;;11.60;9.37;;;2.90;1.00;;;;;;5120207;27;20270;-55
2021/01/27 01:23:14;;;;;;;15.50;9.20;;;2.90;1.00;;;;;;5120899;27;20478;-55
2021/01/27 01:25:40;;;;;;;13.37;9.43;;;2.80;1.00;;;;;;5117517;27;20444;-55
2021/01/27 01:28:07;;;;;;;15.67;10.20;;;2.80;1.00;;;;;;5114568;27;20428;-55
2021/01/27 01:30:40;;;;;;;10.90;7.63;;;2.90;1.00;;;;;;5121045;27;20941;-55
2021/01/27 01:33:08;;;;;;;12.37;9.43;;;2.80;1.00;;;;;;5122937;27;20820;-56
2021/01/27 01:35:34;;;;;;;12.97;8.20;;;2.70;1.00;;;;;;5117797;27;20918;-54
2021/01/27 01:38:00;;;;;;;13.33;9.57;;;2.60;1.00;;;;;;5118990;27;20435;-54
2021/01/27 01:40:31;;;;;;;14.70;9.00;;;2.60;1.00;;;;;;5117321;27;20475;-53
2021/01/27 01:43:16;;;;;;;12.07;8.90;;;2.80;1.00;;;;;;5121108;27;20216;-55
2021/01/27 01:45:49;;;;;;;11.73;9.30;;;2.70;1.00;;;;;;5118376;27;20792;-54
2021/01/27 01:48:23;;;;;;;13.10;9.70;;;2.80;1.00;;;;;;5118512;27;20863;-54
2021/01/27 01:50:54;;;;;;;14.97;9.27;;;2.80;1.00;;;;;;5121288;27;20477;-55
2021/01/27 01:53:22;;;;;;;14.57;8.43;;;2.70;1.00;;;;;;5125728;27;20434;-56
2021/01/27 01:55:49;;;;;;;13.40;8.50;;;2.60;1.00;;;;;;5122893;27;20442;-53
2021/01/27 01:58:15;;;;;;;15.67;9.50;;;2.60;1.00;;;;;;5120623;28;20445;-54
2021/01/27 02:00:42;;;;;;;13.23;9.47;;;2.40;1.00;;;;;;5116830;28;20773;-54
2021/01/27 02:03:10;;;;;;;14.00;9.47;;;2.40;1.00;;;;;;5121523;28;20451;-55
2021/01/27 02:05:36;;;;;;;13.70;9.30;;;2.40;1.00;;;;;;5118648;27;20441;-55
2021/01/27 02:08:02;;;;;;;12.20;9.10;;;2.40;1.00;;;;;;5127622;27;20439;-54
2021/01/27 02:10:28;;;;;;;14.20;10.00;;;2.40;1.00;;;;;;5125936;28;20435;-55
2021/01/27 02:13:04;;;;;;;12.00;8.87;;;2.40;1.00;;;;;;5115461;28;20178;-55
2021/01/27 02:15:58;;;;;;;15.43;8.77;;;2.40;1.00;;;;;;5112035;28;20216;-56
2021/01/27 02:18:33;;;;;;;12.80;9.57;;;2.40;1.00;;;;;;5097032;28;20490;-55
2021/01/27 02:21:04;;;;;;;15.97;9.23;;;2.20;1.00;;;;;;5122789;28;20424;-56
2021/01/27 02:23:48;;;;;;;16.93;10.07;;;2.10;1.00;;;;;;5121350;28;20488;-54
2021/01/27 02:26:38;;;;;;;11.73;8.73;;;2.00;1.00;;;;;;5122457;28;20980;-55
2021/01/27 02:29:19;;;;;;;15.60;9.20;;;2.20;1.00;;;;;;5121937;28;20423;-55
2021/01/27 02:32:32;;;;;;;18.43;9.60;;;2.10;1.00;;;;;;5122521;28;20458;-55
2021/01/27 02:35:07;;;;;;;12.70;8.43;;;2.10;1.00;;;;;;5124920;28;20785;-55
2021/01/27 02:37:45;;;;;;;12.97;9.13;;;2.10;1.00;;;;;;5119000;28;20438;-54
2021/01/27 02:40:36;;;;;;;10.93;8.13;;;2.10;1.00;;;;;;5122149;28;20877;-55
2021/01/27 02:43:17;;;;;;;13.63;9.40;;;2.20;1.00;;;;;;5115932;28;20431;-55
2021/01/27 02:45:49;;;;;;;12.67;8.60;;;2.20;1.00;;;;;;5116498;28;20494;-54
2021/01/27 02:48:21;;;;;;;14.93;9.60;;;2.30;1.00;;;;;;5114238;28;20427;-53
2021/01/27 02:51:22;;;;;;;14.53;8.30;;;2.30;1.00;;;;;;5115354;28;20432;-53
2021/01/27 02:53:54;;;;;;;12.90;9.00;;;2.20;1.00;;;;;;5110201;28;20444;-54
2021/01/27 02:56:36;;;;;;;13.17;9.40;;;2.40;1.00;;;;;;5117384;27;20957;-55
2021/01/27 02:59:19;;;;;;;13.90;8.70;;;2.40;1.00;;;;;;5118907;28;20451;-55
2021/01/27 03:02:00;;;;;;;16.30;9.17;;;2.40;1.00;;;;;;5116043;28;20789;-53
2021/01/27 03:04:33;;;;;;;13.40;7.93;;;2.40;1.00;;;;;;5124162;27;20444;-56
2021/01/27 03:07:01;;;;;;;12.63;8.43;;;2.50;1.00;;;;;;5125813;27;20439;-55
2021/01/27 03:09:50;;;;;;;12.73;9.07;;;2.50;1.00;;;;;;5120051;27;20439;-54
2021/01/27 03:12:16;;;;;;;14.23;9.33;;;2.50;1.00;;;;;;5128550;27;20449;-55
2021/01/27 03:14:41;;;;;;;13.30;8.93;;;2.60;1.00;;;;;;5123938;27;20447;-53
2021/01/27 03:17:14;;;;;;;15.50;9.73;;;2.70;1.00;;;;;;5119574;27;20450;-55
2021/01/27 03:19:44;;;;;;;13.53;9.03;;;2.70;1.00;;;;;;5125330;27;20215;-54
2021/01/27 03:22:23;;;;;;;15.77;8.77;;;2.60;1.00;;;;;;5119160;27;20445;-56
2021/01/27 03:25:02;;;;;;;13.63;8.57;;;2.70;1.00;;;;;;5123218;27;20439;-54
2021/01/27 03:27:32;;;;;;;14.17;9.50;;;2.80;1.00;;;;;;5121309;27;20788;-55
2021/01/27 03:29:59;;;;;;;13.53;8.67;;;2.80;1.00;;;;;;5128716;27;20936;-53
2021/01/27 03:32:35;;;;;;;12.50;8.40;;;3.80;1.00;;;;;;5124549;27;20474;-53
2021/01/27 03:35:27;;;;;;;12.50;8.80;;;2.70;1.00;;;;;;5123699;27;20440;-55
2021/01/27 03:38:01;;;;;;;13.47;9.10;;;2.80;1.00;;;;;;5126676;27;20486;-54
2021/01/27 03:40:28;;;;;;;17.50;9.73;;;2.80;1.00;;;;;;5129364;27;20862;-54
2021/01/27 03:43:13;;;;;;;11.30;8.73;;;2.80;1.00;;;;;;5118023;27;20428;-54
2021/01/27 03:45:46;;;;;;;11.10;8.50;;;2.80;1.00;;;;;;5127752;27;20435;-55
2021/01/27 03:48:30;;;;;;;14.50;8.70;;;2.80;1.00;;;;;;5111608;28;20440;-54
2021/01/27 03:50:58;;;;;;;12.73;8.57;;;2.90;1.00;;;;;;5112691;27;20436;-54
2021/01/27 03:53:26;;;;;;;13.23;8.60;;;2.70;1.00;;;;;;5123759;27;20439;-55
2021/01/27 03:55:58;;;;;;;12.33;8.20;;;2.70;1.00;;;;;;5120741;27;20444;-54
2021/01/27 03:58:31;;;;;;;12.53;8.40;;;2.70;1.00;;;;;;5133699;27;20434;-55
2021/01/27 04:01:15;;;;;;;14.67;9.07;;;2.60;1.00;;;;;;5120200;27;20493;-55
2021/01/27 04:03:41;;;;;;;16.87;9.17;;;2.70;1.00;;;;;;5125939;27;20477;-54
2021/01/27 04:06:07;;;;;;;11.83;8.00;;;2.50;1.00;;;;;;5111988;27;20446;-55
2021/01/27 04:08:34;;;;;;;13.00;8.73;;;2.50;1.00;;;;;;5116547;27;20468;-54
2021/01/27 04:11:00;;;;;;;12.83;9.33;;;2.50;1.00;;;;;;5119908;27;20447;-54
2021/01/27 04:13:26;;;;;;;13.60;9.10;;;2.50;1.00;;;;;;5124634;27;20451;-54
2021/01/27 04:15:52;;;;;;;13.20;8.07;;;2.60;1.00;;;;;;5124058;27;20447;-55
2021/01/27 04:18:18;;;;;;;15.10;8.73;;;2.70;1.00;;;;;;5123404;27;20490;-54
2021/01/27 04:20:44;;;;;;;14.00;9.90;;;2.80;1.00;;;;;;5126989;27;20182;-55
2021/01/27 04:23:09;;;;;;;14.50;8.13;;;2.80;1.00;;;;;;5127197;27;20178;-55
2021/01/27 04:25:35;;;;;;;12.80;8.17;;;2.90;1.00;;;;;;5114780;27;20441;-53
2021/01/27 04:28:01;;;;;;;13.70;10.00;;;2.80;1.00;;;;;;5122869;27;20182;-55
2021/01/27 04:30:29;;;;;;;12.97;8.90;;;2.90;1.00;;;;;;5129331;27;20182;-54
2021/01/27 04:32:56;;;;;;;11.33;8.10;;;2.90;1.00;;;;;;5116346;27;20221;-55
2021/01/27 04:35:22;;;;;;;13.27;9.03;;;2.80;1.00;;;;;;5118412;27;20509;-55
2021/01/27 04:37:47;;;;;;;13.37;8.73;;;2.80;1.00;;;;;;5123584;27;20432;-55
2021/01/27 04:40:18;;;;;;;16.17;10.73;;;2.90;1.00;;;;;;5122522;27;20475;-56
2021/01/27 04:42:44;;;;;;;12.33;9.10;;;2.90;1.00;;;;;;5114788;27;20657;-54
2021/01/27 04:45:10;;;;;;;13.63;8.30;;;2.90;1.00;;;;;;5117219;27;20434;-55
2021/01/27 04:47:41;;;;;;;11.90;7.83;;;3.10;1.00;;;;;;5124828;27;20182;-54
2021/01/27 04:50:37;;;;;;;14.33;7.93;;;2.80;1.00;;;;;;5111739;27;20499;-55
2021/01/27 04:53:12;;;;;;;18.40;10.10;;;3.00;1.00;;;;;;5111379;27;20448;-54
2021/01/27 04:56:02;;;;;;;12.57;9.13;;;3.00;1.00;;;;;;5115280;27;20904;-54
2021/01/27 04:58:28;;;;;;;14.13;9.60;;;3.10;1.00;;;;;;5123301;27;20496;-53
2021/01/27 05:01:30;;;;;;;12.27;8.20;;;3.10;1.00;;;;;;5115403;27;20824;-54
2021/01/27 05:04:14;;;;;;;15.17;8.33;;;3.00;1.00;;;;;;5122113;27;20174;-54
2021/01/27 05:06:47;;;;;;;14.33;8.67;;;3.10;1.00;;;;;;5127087;27;20440;-54
2021/01/27 05:09:30;;;;;;;13.50;7.73;;;3.10;1.00;;;;;;5126641;27;20766;-55
2021/01/27 05:11:57;;;;;;;11.93;8.80;;;3.20;1.00;;;;;;5113133;27;20469;-55
2021/01/27 05:14:25;;;;;;;13.40;8.20;;;3.00;1.00;;;;;;5117367;27;20455;-54
2021/01/27 05:16:51;;;;;;;11.50;8.07;;;3.10;1.00;;;;;;5118066;27;20456;-55
2021/01/27 05:19:17;;;;;;;10.97;8.50;;;2.90;1.00;;;;;;5121373;27;20464;-55
2021/01/27 05:21:51;;;;;;;16.80;8.93;;;3.10;1.00;;;;;;5116991;27;20444;-53
2021/01/27 05:24:16;;;;;;;13.53;7.70;;;3.10;1.00;;;;;;5111308;27;20532;-54
2021/01/27 05:27:04;;;;;;;13.70;8.77;;;2.90;1.00;;;;;;5121322;27;20515;-54
2021/01/27 05:29:38;;;;;;;13.07;8.30;;;2.80;1.00;;;;;;5118485;27;20195;-55
2021/01/27 05:32:25;;;;;;;15.13;8.90;;;2.20;1.00;;;;;;5119308;27;20969;-54
2021/01/27 05:34:56;;;;;;;11.97;8.80;;;2.80;1.00;;;;;;5130220;27;20448;-55
2021/01/27 05:37:28;;;;;;;14.00;9.53;;;2.70;1.00;;;;;;5118991;27;20529;-55
2021/01/27 05:40:17;;;;;;;11.23;8.10;;;2.80;1.00;;;;;;5115536;27;20464;-55
2021/01/27 05:42:43;;;;;;;13.93;8.77;;;2.60;1.00;;;;;;5122193;27;20502;-54
2021/01/27 05:45:48;;;;;;;13.70;10.17;;;2.50;1.00;;;;;;5127908;27;20496;-56
2021/01/27 05:48:28;;;;;;;14.43;9.70;;;2.60;1.00;;;;;;5124822;27;20456;-55
2021/01/27 05:51:11;;;;;;;14.00;9.10;;;2.60;1.00;;;;;;5113985;27;20870;-56
2021/01/27 05:53:37;;;;;;;13.33;8.70;;;2.60;1.00;;;;;;5125931;27;20453;-56
2021/01/27 05:56:08;;;;;;;11.37;8.00;;;2.80;1.00;;;;;;5118505;27;20497;-55
2021/01/27 05:58:36;;;;;;;11.80;8.67;;;2.80;1.00;;;;;;5123388;27;20967;-53
2021/01/27 06:01:22;;;;;;;11.57;7.70;;;2.90;1.00;;;;;;5128587;27;20461;-54
2021/01/27 06:03:53;;;;;;;13.70;9.27;;;3.10;1.00;;;;;;5118293;27;20790;-53
2021/01/27 06:06:19;;;;;;;12.50;9.23;;;3.20;1.00;;;;;;5119181;28;20524;-54
2021/01/27 06:08:51;;;;;;;12.63;8.97;;;3.10;1.00;;;;;;5122360;28;20507;-54
2021/01/27 06:11:17;;;;;;;13.77;7.90;;;3.00;1.00;;;;;;5117997;28;20533;-55
2021/01/27 06:13:43;;;;;;;13.20;9.13;;;3.20;1.00;;;;;;5120499;28;20438;-54
2021/01/27 06:16:30;;;;;;;13.30;9.30;;;3.20;1.00;;;;;;5126543;28;20455;-55
2021/01/27 06:19:22;;;;;;;11.83;8.17;;;3.20;1.00;;;;;;5118633;28;20189;-56
2021/01/27 06:21:58;;;;;;;16.07;8.83;;;3.20;1.00;;;;;;5129048;28;20430;-54
2021/01/27 06:24:45;;;;;;;10.10;8.13;;;3.20;1.00;;;;;;5121404;28;20431;-55
2021/01/27 06:27:32;;;;;;;15.10;8.40;;;3.30;1.00;;;;;;5121101;27;20924;-55
2021/01/27 06:30:01;;;;;;;14.13;9.87;;;3.40;1.00;;;;;;5124106;28;20956;-55
2021/01/27 06:32:50;;;;;;;16.77;11.00;;;3.50;1.00;;;;;;5116324;28;20468;-55
2021/01/27 06:35:22;;;;;;;16.60;10.47;;;3.60;1.00;;;;;;5116588;28;20433;-54
2021/01/27 06:38:00;;;;;;;11.60;8.30;;;3.50;1.00;;;;;;5117026;28;20422;-54
2021/01/27 06:40:51;;;;;;;13.73;9.80;;;3.70;1.00;;;;;;5120470;27;20958;-55
2021/01/27 06:43:25;;;;;;;10.63;8.40;;;3.70;1.00;;;;;;5126172;27;20448;-55
2021/01/27 06:46:15;;;;;;;14.37;9.30;;;3.60;1.00;;;;;;5127576;27;20447;-55
2021/01/27 06:48:52;;;;;;;11.97;9.13;;;3.60;1.00;;;;;;5120502;27;20429;-55
2021/01/27 06:51:42;;;;;;;61.87;32.70;;;3.50;1.00;;;;;;5117216;27;20750;-55
2021/01/27 06:54:16;;;;;;;13.80;9.80;;;3.60;1.00;;;;;;5104325;27;20450;-53
2021/01/27 06:57:26;;;;;;;17.80;11.77;;;3.70;1.00;;;;;;5129807;27;20600;-55
2021/01/27 07:00:20;;;;;;;14.20;10.70;;;3.90;1.00;;;;;;5077028;27;20512;-54
2021/01/27 07:03:13;;;;;;;13.80;9.10;;;3.70;1.00;;;;;;5121893;27;20489;-54
2021/01/27 07:05:56;;;;;;;18.30;12.73;;;3.60;1.00;;;;;;5121789;27;20424;-53
2021/01/27 07:08:41;;;;;;;17.50;10.50;;;3.60;1.00;;;;;;5118403;27;20436;-54
2021/01/27 07:11:28;;;;;;;15.17;9.70;;;3.80;1.00;;;;;;5120349;27;20471;-53
2021/01/27 07:14:08;;;;;;;13.27;10.17;;;3.60;1.00;;;;;;5118479;27;20513;-54
2021/01/27 07:16:54;;;;;;;13.93;10.00;;;3.60;1.00;;;;;;5123630;27;20433;-55
2021/01/27 07:19:48;;;;;;;13.80;10.20;;;3.70;1.00;;;;;;5129795;27;20465;-54
2021/01/27 07:22:29;;;;;;;13.07;10.23;;;3.70;1.00;;;;;;5125657;27;20435;-55
2021/01/27 07:25:00;;;;;;;14.57;9.00;;;3.70;1.00;;;;;;5121478;27;20526;-54
2021/01/27 07:27:30;;;;;;;19.37;11.83;;;3.80;1.00;;;;;;5116048;27;20439;-55
2021/01/27 07:30:12;;;;;;;16.70;10.63;;;3.90;1.00;;;;;;5128836;27;20440;-54
2021/01/27 07:32:55;;;;;;;12.60;10.30;;;3.90;1.00;;;;;;5124527;27;20472;-53
2021/01/27 07:35:37;;;;;;;14.30;10.20;;;4.00;1.00;;;;;;5127753;27;20446;-54
2021/01/27 07:38:14;;;;;;;15.77;11.03;;;4.10;1.00;;;;;;5123159;27;20834;-53
2021/01/27 07:40:53;;;;;;;13.90;10.70;;;4.00;1.00;;;;;;5125967;27;20797;-56
2021/01/27 07:43:23;;;;;;;17.13;11.87;;;4.10;1.00;;;;;;5118665;27;20938;-55
2021/01/27 07:45:55;;;;;;;18.50;11.53;;;4.00;1.00;;;;;;5118110;27;20436;-54
2021/01/27 07:48:37;;;;;;;14.50;11.63;;;4.20;1.00;;;;;;5124511;27;20776;-55
2021/01/27 07:51:04;;;;;;;18.80;11.77;;;4.30;1.00;;;;;;5147377;27;20445;-54
2021/01/27 07:53:38;;;;;;;18.40;12.37;;;4.30;1.00;;;;;;5118526;27;20440;-55
2021/01/27 07:56:24;;;;;;;16.90;12.20;;;4.20;1.00;;;;;;5119696;27;20935;-55
2021/01/27 07:58:57;;;;;;;15.13;11.20;;;4.20;1.00;;;;;;5118253;27;20456;-54
2021/01/27 08:01:35;;;;;;;15.90;11.53;;;4.10;1.00;;;;;;5126782;27;20840;-55
2021/01/27 08:04:09;;;;;;;20.00;12.20;;;4.10;1.00;;;;;;5123384;27;20439;-53
2021/01/27 08:06:50;;;;;;;14.13;11.30;;;4.20;1.00;;;;;;5120858;27;20837;-55
2021/01/27 08:09:36;;;;;;;15.57;11.33;;;4.10;1.00;;;;;;5122818;27;20436;-55
2021/01/27 08:12:15;;;;;;;16.67;11.13;;;4.20;1.00;;;;;;5122532;27;20416;-54
2021/01/27 08:15:07;;;;;;;21.73;12.30;;;4.20;1.00;;;;;;5121941;27;20462;-53
2021/01/27 08:17:54;;;;;;;16.47;11.97;;;4.20;1.00;;;;;;5120496;27;20447;-54
2021/01/27 08:20:39;;;;;;;15.90;10.90;;;4.20;1.00;;;;;;5121569;27;20465;-55
2021/01/27 08:23:21;;;;;;;15.63;12.17;;;4.10;1.00;;;;;;5115545;27;20955;-55
2021/01/27 08:26:00;;;;;;;14.93;12.17;;;4.10;1.00;;;;;;5120681;27;20884;-53
2021/01/27 08:28:38;;;;;;;14.03;11.00;;;4.10;1.00;;;;;;5125211;27;20922;-53
2021/01/27 08:31:07;;;;;;;16.23;12.40;;;4.30;1.00;;;;;;5127531;27;20474;-53
2021/01/27 08:33:49;;;;;;;16.40;12.33;;;4.20;1.00;;;;;;5124618;27;20455;-54
2021/01/27 08:36:33;;;;;;;16.50;11.50;;;4.30;1.00;;;;;;5122308;27;20935;-53
2021/01/27 08:38:58;;;;;;;17.83;12.13;;;4.30;1.00;;;;;;5116889;27;20557;-52
2021/01/27 08:41:43;;;;;;;16.67;11.10;;;4.40;1.00;;;;;;5115777;27;20525;-54
2021/01/27 08:44:20;;;;;;;18.23;12.57;;;4.40;1.00;;;;;;5127799;27;20279;-53
2021/01/27 08:46:54;;;;;;;19.63;12.70;;;4.40;1.00;;;;;;5120674;27;20416;-52
2021/01/27 08:49:50;;;;;;;15.50;11.70;;;4.40;1.00;;;;;;5126347;27;20453;-53
2021/01/27 08:52:16;;;;;;;16.97;11.60;;;4.50;1.00;;;;;;5115708;27;20441;-55
2021/01/27 08:54:41;;;;;;;18.90;13.20;;;4.50;1.00;;;;;;5125870;27;20428;-53
2021/01/27 08:57:26;;;;;;;18.73;11.80;;;4.60;1.00;;;;;;5118150;27;20633;-53
2021/01/27 09:00:00;;;;;;;17.80;11.67;;;4.70;1.00;;;;;;5122955;27;20292;-56
2021/01/27 09:02:51;;;;;;;17.10;11.73;;;4.60;1.00;;;;;;5113996;27;20780;-53
2021/01/27 09:05:19;;;;;;;16.80;12.77;;;4.50;1.00;;;;;;5120946;27;20435;-54
2021/01/27 09:07:56;;;;;;;16.43;12.20;;;4.50;1.00;;;;;;5126564;27;20969;-52
2021/01/27 09:10:44;;;;;;;14.10;11.13;;;4.70;1.00;;;;;;5117748;27;21260;-55
2021/01/27 09:13:41;;;;;;;17.00;12.90;;;4.70;1.00;;;;;;5121352;27;20433;-55
2021/01/27 09:16:20;;;;;;;18.37;11.97;;;4.60;1.00;;;;;;5131609;27;20534;-54
2021/01/27 09:18:56;;;;;;;17.30;12.10;;;4.70;1.00;;;;;;5124329;27;20451;-57
2021/01/27 09:21:23;;;;;;;16.50;11.17;;;4.80;1.00;;;;;;5117567;27;20443;-53
2021/01/27 09:24:01;;;;;;;17.50;13.40;;;4.80;1.00;;;;;;5121543;27;21005;-53
2021/01/27 09:26:37;;;;;;;18.30;12.37;;;4.80;1.00;;;;;;5111649;27;20857;-55
2021/01/27 09:29:28;;;;;;;14.50;11.70;;;4.90;1.00;;;;;;5115214;27;20460;-56
2021/01/27 09:31:55;;;;;;;14.90;10.73;;;4.60;1.00;;;;;;5113490;27;20497;-56
2021/01/27 09:34:29;;;;;;;16.67;12.00;;;5.00;1.00;;;;;;5120143;27;20947;-55
2021/01/27 09:37:16;;;;;;;14.23;11.60;;;5.00;1.00;;;;;;5127654;27;20452;-53
2021/01/27 09:39:51;;;;;;;16.57;11.10;;;5.00;1.00;;;;;;5118578;27;20466;-55
2021/01/27 09:42:21;;;;;;;13.60;11.00;;;5.00;1.00;;;;;;5119710;27;20781;-53
2021/01/27 09:44:53;;;;;;;14.20;10.80;;;5.00;1.00;;;;;;5121745;27;20503;-54
2021/01/27 09:47:18;;;;;;;14.40;11.00;;;5.10;1.00;;;;;;5127072;27;20439;-55
2021/01/27 09:49:51;;;;;;;13.80;10.93;;;5.20;1.00;;;;;;5132001;27;20435;-57
2021/01/27 09:52:19;;;;;;;14.37;9.63;;;5.30;1.00;;;;;;5123030;27;20186;-56
2021/01/27 09:54:52;;;;;;;12.50;9.73;;;5.40;1.00;;;;;;5129352;27;20427;-54
2021/01/27 09:57:20;;;;;;;16.30;11.90;;;5.40;1.00;;;;;;5117860;27;20587;-56
2021/01/27 09:59:51;;;;;;;14.00;11.40;;;5.50;1.00;;;;;;5116774;27;20809;-55
2021/01/27 10:02:26;;;;;;;13.40;9.80;;;5.60;1.00;;;;;;5126615;27;20423;-58
2021/01/27 10:04:51;;;;;;;12.23;9.10;;;5.70;1.00;;;;;;5119535;28;20463;-54
2021/01/27 10:07:34;;;;;;;11.90;8.77;;;5.90;1.00;;;;;;5123436;28;20451;-54
2021/01/27 10:10:15;;;;;;;11.20;9.03;;;6.10;1.00;;;;;;5119334;28;20646;-55
2021/01/27 10:12:43;;;;;;;11.40;9.37;;;6.00;1.00;;;;;;5117879;28;20860;-52
2021/01/27 10:15:16;;;;;;;13.70;9.40;;;5.90;1.00;;;;;;5128235;27;20502;-56
2021/01/27 10:17:42;;;;;;;12.07;10.17;;;5.80;1.00;;;;;;5117125;27;20435;-54
2021/01/27 10:20:27;;;;;;;13.43;10.30;;;5.90;1.00;;;;;;5120620;27;20480;-52
2021/01/27 10:22:59;;;;;;;12.10;9.80;;;6.00;1.00;;;;;;5125805;27;20939;-55
2021/01/27 10:25:44;;;;;;;10.27;9.30;;;6.10;1.00;;;;;;5125427;27;20434;-54
2021/01/27 10:28:20;;;;;;;12.43;9.27;;;6.10;1.00;;;;;;5120426;27;20437;-54
2021/01/27 10:31:01;;;;;;;14.40;9.90;;;6.00;1.00;;;;;;5113749;27;20522;-54
2021/01/27 10:33:40;;;;;;;11.20;7.47;;;6.10;1.00;;;;;;5120164;27;20466;-53
2021/01/27 10:36:37;;;;;;;11.43;8.90;;;6.30;1.00;;;;;;5128236;27;20445;-52
2021/01/27 10:39:11;;;;;;;12.93;8.90;;;6.40;1.00;;;;;;5119856;27;20504;-54
2021/01/27 10:41:36;;;;;;;10.40;8.70;;;6.40;1.00;;;;;;5129973;27;20440;-57
2021/01/27 10:44:18;;;;;;;9.40;8.40;;;6.50;1.00;;;;;;5122440;27;20442;-55
2021/01/27 10:46:44;;;;;;;11.73;8.77;;;6.80;1.00;;;;;;5113973;27;20219;-55
2021/01/27 10:49:10;;;;;;;14.30;8.13;;;7.10;1.00;;;;;;5125908;27;20442;-53
2021/01/27 10:51:35;;;;;;;15.43;8.27;;;7.30;1.00;;;;;;5131242;27;20182;-54
2021/01/27 10:54:03;;;;;;;9.40;7.50;;;7.40;1.00;;;;;;5123306;27;20209;-55
2021/01/27 10:56:28;;;;;;;9.20;8.13;;;7.50;1.00;;;;;;5127004;27;20182;-53
2021/01/27 10:58:54;;;;;;;8.87;7.50;;;7.50;1.00;;;;;;5122360;27;20478;-55
2021/01/27 11:01:19;;;;;;;9.23;8.33;;;7.70;1.00;;;;;;5125556;27;20311;-54
2021/01/27 11:03:45;;;;;;;10.43;8.13;;;7.50;1.00;;;;;;5129988;27;20261;-54
2021/01/27 11:06:11;;;;;;;16.40;10.97;;;7.40;1.00;;;;;;5127467;27;20524;-52
2021/01/27 11:08:44;;;;;;;12.23;8.17;;;7.30;1.00;;;;;;5126220;27;20254;-53
2021/01/27 11:11:10;;;;;;;11.40;6.70;;;7.20;1.00;;;;;;5124180;27;20189;-54
2021/01/27 11:13:35;;;;;;;7.93;7.10;;;7.20;1.00;;;;;;5122416;27;20507;-57
2021/01/27 11:16:02;;;;;;;9.37;6.73;;;7.10;1.00;;;;;;5122273;27;20472;-54
2021/01/27 11:18:28;;;;;;;7.27;5.87;;;7.10;1.00;;;;;;5123851;27;20846;-53
2021/01/27 11:20:54;;;;;;;8.43;6.37;;;6.80;1.00;;;;;;5121810;27;20531;-53
2021/01/27 11:23:21;;;;;;;7.77;6.17;;;6.60;1.00;;;;;;5115840;27;20656;-55
2021/01/27 11:25:47;;;;;;;6.60;5.90;;;6.50;1.00;;;;;;5128909;27;20174;-53
2021/01/27 11:28:12;;;;;;;6.43;5.77;;;6.50;1.00;;;;;;5115889;27;20436;-54
2021/01/27 11:30:38;;;;;;;6.80;6.10;;;6.60;1.00;;;;;;5124759;27;20959;-54
2021/01/27 11:33:05;;;;;;;6.43;5.47;;;6.70;1.00;;;;;;5121723;27;20266;-55
2021/01/27 11:35:31;;;;;;;6.57;5.47;;;6.50;1.00;;;;;;5125783;27;20731;-55
2021/01/27 11:37:56;;;;;;;8.93;5.97;;;6.60;1.00;;;;;;5128201;27;20427;-52
2021/01/27 11:40:24;;;;;;;6.27;5.67;;;6.60;1.00;;;;;;5125000;27;20249;-54
2021/01/27 11:42:50;;;;;;;5.53;5.03;;;6.60;1.00;;;;;;5119208;27;20635;-56
2021/01/27 11:45:17;;;;;;;5.90;5.07;;;6.70;1.00;;;;;;5121348;27;20430;-53
2021/01/27 11:47:43;;;;;;;8.07;5.27;;;7.70;1.00;;;;;;5132220;27;20185;-52
2021/01/27 11:50:10;;;;;;;5.03;4.60;;;6.70;1.00;;;;;;5121300;27;20955;-54
2021/01/27 11:52:35;;;;;;;5.73;5.13;;;6.60;1.00;;;;;;5116002;27;20227;-53
2021/01/27 11:55:01;;;;;;;9.00;6.10;;;6.60;1.00;;;;;;5119223;27;20941;-53
2021/01/27 11:57:26;;;;;;;6.87;5.97;;;6.40;1.00;;;;;;5121613;27;20192;-55
2021/01/27 11:59:52;;;;;;;4.80;4.40;;;6.40;1.00;;;;;;5122516;27;20201;-53
2021/01/27 12:02:18;;;;;;;5.43;4.80;;;6.50;1.00;;;;;;5116215;27;20287;-54
2021/01/27 12:04:43;;;;;;;6.30;5.07;;;6.60;1.00;;;;;;5116511;27;20178;-53
2021/01/27 12:07:09;;;;;;;11.80;5.90;;;6.70;1.00;;;;;;5121466;27;20626;-54
2021/01/27 12:09:35;;;;;;;9.87;5.70;;;6.70;1.00;;;;;;5122397;27;20590;-54
2021/01/27 12:12:06;;;;;;;9.93;6.17;;;6.40;1.00;;;;;;5117348;27;20551;-54
2021/01/27 12:14:31;;;;;;;6.50;5.70;;;6.30;1.00;;;;;;5131219;27;20859;-54
2021/01/27 12:16:57;;;;;;;8.90;6.70;;;6.20;1.00;;;;;;5125030;27;20550;-54
2021/01/27 12:19:23;;;;;;;6.30;5.20;;;6.20;1.00;;;;;;5126926;27;20249;-53
2021/01/27 12:21:52;;;;;;;5.83;5.23;;;6.40;1.00;;;;;;5127147;27;20178;-53
2021/01/27 12:24:20;;;;;;;6.63;5.90;;;6.60;1.00;;;;;;5114316;27;20935;-55
2021/01/27 12:26:47;;;;;;;14.90;8.00;;;6.70;1.00;;;;;;5127202;27;20428;-54
2021/01/27 12:29:15;;;;;;;16.47;8.60;;;6.80;1.00;;;;;;5124177;27;20937;-55
2021/01/27 12:31:42;;;;;;;12.17;6.40;;;6.90;1.00;;;;;;5122003;27;20457;-55
2021/01/27 12:34:08;;;;;;;7.17;5.90;;;7.10;1.00;;;;;;5125155;27;20435;-52
2021/01/27 12:36:34;;;;;;;8.33;5.80;;;7.20;1.00;;;;;;5121639;27;20466;-54
2021/01/27 12:38:59;;;;;;;11.70;6.50;;;7.00;1.00;;;;;;5118078;27;20491;-56
2021/01/27 12:41:25;;;;;;;6.33;4.80;;;7.00;1.00;;;;;;5123884;27;20193;-53
2021/01/27 12:43:52;;;;;;;7.70;5.73;;;6.70;1.00;;;;;;5116767;27;20182;-54
2021/01/27 12:46:19;;;;;;;16.43;8.87;;;6.60;1.00;;;;;;5122215;27;20189;-56
2021/01/27 12:48:45;;;;;;;9.63;5.30;;;6.60;1.00;;;;;;5121673;27;20435;-53
2021/01/27 12:51:11;;;;;;;5.43;4.77;;;6.70;1.00;;;;;;5122450;27;20418;-53
2021/01/27 12:53:37;;;;;;;5.20;4.50;;;6.80;1.00;;;;;;5125011;27;20427;-52
2021/01/27 12:56:03;;;;;;;6.40;5.13;;;6.80;1.00;;;;;;5123102;27;20264;-52
2021/01/27 12:58:29;;;;;;;6.47;5.47;;;6.90;1.00;;;;;;5118518;27;20510;-53
2021/01/27 13:00:54;;;;;;;6.50;5.47;;;7.00;1.00;;;;;;5121778;27;20209;-54
2021/01/27 13:03:20;;;;;;;7.57;4.70;;;7.00;1.00;;;;;;5116047;27;20182;-52
2021/01/27 13:05:45;;;;;;;4.50;4.03;;;6.90;1.00;;;;;;5120670;27;20264;-52
2021/01/27 13:08:11;;;;;;;5.40;4.90;;;6.90;1.00;;;;;;5121127;27;20186;-54
2021/01/27 13:10:42;;;;;;;4.93;4.53;;;7.00;1.00;;;;;;5118618;27;20205;-55
2021/01/27 13:13:13;;;;;;;4.80;4.30;;;6.70;1.00;;;;;;5120615;27;20583;-53
2021/01/27 13:15:39;;;;;;;6.23;4.90;;;6.70;1.00;;;;;;5126310;27;20932;-54
2021/01/27 13:18:05;;;;;;;7.10;4.80;;;6.90;1.00;;;;;;5121942;27;20442;-54
2021/01/27 13:20:33;;;;;;;5.80;4.83;;;6.90;1.00;;;;;;5132013;27;20542;-55
2021/01/27 13:22:59;;;;;;;5.60;4.80;;;7.10;1.00;;;;;;5122014;27;20930;-55
2021/01/27 13:25:25;;;;;;;6.50;4.77;;;6.90;1.00;;;;;;5123381;27;20440;-56